createdAt,value
2023-12-28T00:00:08.369Z,99707.63
2023-12-28T00:02:36.825Z,99711.19
2023-12-28T00:05:05.939Z,99717.31
2023-12-28T00:07:34.252Z,99707.69
2023-12-28T00:10:04.421Z,99729.47
2023-12-28T00:12:34.446Z,99732.06
2023-12-28T00:15:02.769Z,99726.03
2023-12-28T00:17:31.211Z,99724.28
2023-12-28T00:19:59.534Z,99725.16
2023-12-28T00:22:27.883Z,99734.78
2023-12-28T00:24:56.453Z,99727.84
2023-12-28T00:27:26.076Z,99707.81
2023-12-28T00:29:54.490Z,99716.56
2023-12-28T00:32:22.773Z,99713.97
2023-12-28T00:34:51.119Z,99724.44
2023-12-28T00:37:19.554Z,99727.94
2023-12-28T00:39:48.247Z,99714.09
2023-12-28T00:42:16.691Z,99721.94
2023-12-28T00:44:46.316Z,99742.09
2023-12-28T00:47:14.653Z,99745.63
2023-12-28T00:49:43.031Z,99747.50
2023-12-28T00:52:11.408Z,99747.56
2023-12-28T00:54:39.682Z,99751.16
2023-12-28T00:57:07.978Z,99759.06
2023-12-28T00:59:36.582Z,99756.47
2023-12-28T01:02:06.375Z,99751.34
2023-12-28T01:04:34.826Z,99754.88
2023-12-28T01:07:06.847Z,99764.59
2023-12-28T01:09:35.225Z,99750.66
2023-12-28T01:12:06.239Z,99754.19
2023-12-28T01:14:35.096Z,99755.13
2023-12-28T01:17:03.455Z,99758.66
2023-12-28T01:19:33.147Z,99770.00
2023-12-28T01:22:01.395Z,99758.72
2023-12-28T01:24:29.684Z,99784.00
2023-12-28T01:26:57.948Z,99777.09
2023-12-28T01:29:26.180Z,99768.41
2023-12-28T01:31:54.495Z,99766.69
2023-12-28T01:34:23.396Z,99780.69
2023-12-28T01:36:53.690Z,99774.59
2023-12-28T01:39:22.179Z,99777.25
2023-12-28T01:41:50.819Z,99790.34
2023-12-28T01:44:19.220Z,99785.16
2023-12-28T01:46:48.296Z,99779.06
2023-12-28T01:49:16.786Z,99786.09
2023-12-28T01:51:47.143Z,99793.94
2023-12-28T01:54:17.739Z,99794.81
2023-12-28T01:56:46.832Z,99800.03
2023-12-28T01:59:15.312Z,99791.38
2023-12-28T02:01:43.900Z,99796.59
2023-12-28T02:04:12.688Z,99787.03
2023-12-28T02:06:41.358Z,99794.00
2023-12-28T02:09:09.655Z,99791.38
2023-12-28T02:11:39.285Z,99801.03
2023-12-28T02:14:07.688Z,99795.78
2023-12-28T02:16:41.033Z,99801.91
2023-12-28T02:19:19.926Z,99800.16
2023-12-28T02:21:49.878Z,99801.91
2023-12-28T02:24:18.323Z,99808.88
2023-12-28T02:26:47.946Z,99803.66
2023-12-28T02:29:17.508Z,99796.66
2023-12-28T02:31:52.159Z,99806.25
2023-12-28T02:34:23.888Z,99796.75
2023-12-28T02:36:53.758Z,99790.63
2023-12-28T02:39:24.444Z,99803.78
2023-12-28T02:41:56.150Z,99798.56
2023-12-28T02:44:25.610Z,99800.31
2023-12-28T02:46:53.874Z,99802.09
2023-12-28T02:49:22.334Z,99813.44
2023-12-28T02:51:51.886Z,99798.63
2023-12-28T02:54:20.768Z,99804.72
2023-12-28T02:56:49.308Z,99802.97
2023-12-28T02:59:19.026Z,99798.69
2023-12-28T03:01:47.341Z,99788.22
2023-12-28T03:04:16.476Z,99796.97
2023-12-28T03:06:48.992Z,99797.84
2023-12-28T03:09:17.469Z,99799.66
2023-12-28T03:11:45.722Z,99786.59
2023-12-28T03:14:14.430Z,99793.59
2023-12-28T03:16:44.222Z,99792.69
2023-12-28T03:19:12.725Z,99793.59
2023-12-28T03:21:42.242Z,99797.97
2023-12-28T03:24:10.660Z,99784.88
2023-12-28T03:26:40.515Z,99787.50
2023-12-28T03:29:09.739Z,99782.31
2023-12-28T03:31:41.521Z,99793.66
2023-12-28T03:34:11.687Z,99799.78
2023-12-28T03:36:40.140Z,99797.19
2023-12-28T03:39:08.593Z,99793.72
2023-12-28T03:41:36.958Z,99788.50
2023-12-28T03:44:05.644Z,99788.50
2023-12-28T03:46:34.153Z,99781.56
2023-12-28T03:49:02.662Z,99781.56
2023-12-28T03:51:32.524Z,99779.81
2023-12-28T03:54:00.909Z,99772.84
2023-12-28T03:56:31.278Z,99769.41
2023-12-28T03:58:59.539Z,99769.41
2023-12-28T04:01:27.854Z,99772.91
2023-12-28T04:03:56.206Z,99769.41
2023-12-28T04:06:24.625Z,99774.66
2023-12-28T04:08:54.307Z,99780.78
2023-12-28T04:11:22.612Z,99783.41
2023-12-28T04:13:50.862Z,99790.44
2023-12-28T04:16:19.154Z,99791.31
2023-12-28T04:18:47.567Z,99773.00
2023-12-28T04:21:16.132Z,99783.47
2023-12-28T04:23:44.445Z,99782.59
2023-12-28T04:26:14.205Z,99773.00
2023-12-28T04:28:42.482Z,99777.38
2023-12-28T04:31:10.861Z,99781.78
2023-12-28T04:33:39.452Z,99766.91
2023-12-28T04:36:08.436Z,99766.06
2023-12-28T04:38:36.713Z,99775.66
2023-12-28T04:41:05.723Z,99780.03
2023-12-28T04:43:35.321Z,99780.03
2023-12-28T04:46:05.905Z,99785.28
2023-12-28T04:48:34.697Z,99786.19
2023-12-28T04:51:05.107Z,99776.53
2023-12-28T04:53:34.835Z,99781.81
2023-12-28T04:56:03.413Z,99787.06
2023-12-28T04:58:31.771Z,99784.44
2023-12-28T05:01:03.789Z,99788.81
2023-12-28T05:03:32.257Z,99783.59
2023-12-28T05:06:00.569Z,99777.47
2023-12-28T05:08:28.927Z,99774.00
2023-12-28T05:10:57.397Z,99787.06
2023-12-28T05:13:25.754Z,99784.44
2023-12-28T05:15:54.085Z,99785.31
2023-12-28T05:18:23.924Z,99794.03
2023-12-28T05:20:52.406Z,99795.75
2023-12-28T05:23:20.688Z,99798.34
2023-12-28T05:25:49.308Z,99820.22
2023-12-28T05:28:17.563Z,99809.75
2023-12-28T05:30:46.080Z,99804.50
2023-12-28T05:33:14.448Z,99809.78
2023-12-28T05:35:44.147Z,99806.31
2023-12-28T05:38:12.564Z,99811.53
2023-12-28T05:40:40.808Z,99802.81
2023-12-28T05:43:09.152Z,99815.91
2023-12-28T05:45:37.448Z,99820.28
2023-12-28T05:48:06.665Z,99818.53
2023-12-28T05:50:35.025Z,99839.47
2023-12-28T05:53:04.946Z,99832.47
2023-12-28T05:55:33.682Z,99844.69
2023-12-28T05:58:02.302Z,99840.31
2023-12-28T06:00:30.840Z,99841.22
2023-12-28T06:02:59.629Z,99832.47
2023-12-28T06:05:28.067Z,99837.72
2023-12-28T06:07:56.522Z,99845.56
2023-12-28T06:10:26.258Z,99855.16
2023-12-28T06:12:54.694Z,99860.41
2023-12-28T06:15:23.132Z,99858.66
2023-12-28T06:17:51.616Z,99858.66
2023-12-28T06:20:20.418Z,99856.91
2023-12-28T06:22:50.101Z,99854.31
2023-12-28T06:25:18.472Z,99846.44
2023-12-28T06:27:48.138Z,99848.25
2023-12-28T06:30:16.847Z,99852.59
2023-12-28T06:32:45.299Z,99858.72
2023-12-28T06:35:13.565Z,99863.06
2023-12-28T06:37:41.817Z,99863.06
2023-12-28T06:40:11.167Z,99863.06
2023-12-28T06:42:39.519Z,99853.47
2023-12-28T06:45:10.028Z,99852.59
2023-12-28T06:47:38.775Z,99850.84
2023-12-28T06:50:08.400Z,99843.88
2023-12-28T06:52:36.708Z,99843.88
2023-12-28T06:55:05.442Z,99833.41
2023-12-28T06:57:33.971Z,99847.38
2023-12-28T07:00:04.009Z,99833.38
2023-12-28T07:02:33.710Z,99840.41
2023-12-28T07:05:02.020Z,99832.53
2023-12-28T07:07:30.388Z,99837.78
2023-12-28T07:09:58.997Z,99840.38
2023-12-28T07:12:27.393Z,99851.78
2023-12-28T07:14:55.679Z,99844.75
2023-12-28T07:17:24.011Z,99857.03
2023-12-28T07:19:53.837Z,99862.25
2023-12-28T07:22:22.356Z,99852.66
2023-12-28T07:24:50.661Z,99864.88
2023-12-28T07:27:19.112Z,99864.94
2023-12-28T07:29:47.437Z,99857.09
2023-12-28T07:32:16.315Z,99867.56
2023-12-28T07:34:44.597Z,99857.97
2023-12-28T07:37:14.260Z,99862.38
2023-12-28T07:39:42.534Z,99860.63
2023-12-28T07:42:10.882Z,99867.59
2023-12-28T07:44:39.151Z,99880.75
2023-12-28T07:47:09.800Z,99883.31
2023-12-28T07:49:38.656Z,99878.97
2023-12-28T07:52:07.580Z,99878.97
2023-12-28T07:54:37.316Z,99889.44
2023-12-28T07:57:06.278Z,99903.38
2023-12-28T07:59:34.572Z,99903.38
2023-12-28T08:02:02.814Z,99904.25
2023-12-28T08:04:31.295Z,99905.13
2023-12-28T08:06:59.726Z,99914.72
2023-12-28T08:09:28.115Z,99911.28
2023-12-28T08:11:57.786Z,99898.19
2023-12-28T08:14:26.108Z,99898.22
2023-12-28T08:16:54.596Z,99913.03
2023-12-28T08:19:22.948Z,99915.69
2023-12-28T08:21:51.332Z,99927.06
2023-12-28T08:24:19.745Z,99920.03
2023-12-28T08:26:48.127Z,99913.09
2023-12-28T08:29:19.075Z,99916.59
2023-12-28T08:31:48.383Z,99906.09
2023-12-28T08:34:17.471Z,99913.97
2023-12-28T08:36:45.981Z,99907.88
2023-12-28T08:39:14.246Z,99914.88
2023-12-28T08:41:42.517Z,99921.88
2023-12-28T08:44:10.953Z,99928.00
2023-12-28T08:46:40.566Z,99930.63
2023-12-28T08:49:08.970Z,99929.78
2023-12-28T08:51:37.338Z,99929.78
2023-12-28T08:54:05.675Z,99927.19
2023-12-28T08:56:33.963Z,99932.41
2023-12-28T08:59:04.613Z,99932.47
2023-12-28T09:01:33.271Z,99935.09
2023-12-28T09:04:03.186Z,99937.72
2023-12-28T09:06:31.542Z,99940.38
2023-12-28T09:09:00.019Z,99938.63
2023-12-28T09:11:29.795Z,99937.81
2023-12-28T09:13:58.118Z,99935.19
2023-12-28T09:16:26.298Z,99929.97
2023-12-28T09:18:54.702Z,99933.50
2023-12-28T09:21:24.528Z,99934.38
2023-12-28T09:23:52.806Z,99947.47
2023-12-28T09:26:21.122Z,99935.31
2023-12-28T09:28:49.376Z,99939.69
2023-12-28T09:31:17.790Z,99938.84
2023-12-28T09:33:46.235Z,99947.59
2023-12-28T09:36:14.700Z,99946.78
2023-12-28T09:38:44.343Z,99949.41
2023-12-28T09:41:15.235Z,99952.06
2023-12-28T09:43:51.128Z,99953.88
2023-12-28T09:46:19.523Z,99950.38
2023-12-28T09:48:48.332Z,99953.91
2023-12-28T09:51:18.956Z,99952.19
2023-12-28T09:53:48.835Z,99947.00
2023-12-28T09:56:18.319Z,99933.91
2023-12-28T09:58:49.844Z,99927.84
2023-12-28T10:01:19.336Z,99936.63
2023-12-28T10:03:47.792Z,99934.00
2023-12-28T10:06:16.500Z,99934.00
2023-12-28T10:08:50.524Z,99937.56
2023-12-28T10:11:20.134Z,99934.09
2023-12-28T10:13:50.314Z,99924.50
2023-12-28T10:16:19.004Z,99926.31
2023-12-28T10:18:47.573Z,99921.13
2023-12-28T10:21:16.132Z,99931.59
2023-12-28T10:23:44.659Z,99938.59
2023-12-28T10:26:14.287Z,99925.53
2023-12-28T10:28:43.695Z,99932.56
2023-12-28T10:31:13.116Z,99933.44
2023-12-28T10:33:42.480Z,99932.56
2023-12-28T10:36:11.751Z,99945.69
2023-12-28T10:38:40.512Z,99938.75
2023-12-28T10:41:09.908Z,99931.81
2023-12-28T10:43:47.544Z,99935.34
2023-12-28T10:46:28.118Z,99931.00
2023-12-28T10:49:01.410Z,99931.91
2023-12-28T10:51:30.839Z,99933.75
2023-12-28T10:54:13.778Z,99919.78
2023-12-28T10:56:48.570Z,99924.19
2023-12-28T10:59:25.686Z,99911.13
2023-12-28T11:01:58.523Z,99915.56
2023-12-28T11:04:42.339Z,99925.22
2023-12-28T11:07:12.567Z,99919.09
2023-12-28T11:09:43.957Z,99915.66
2023-12-28T11:12:13.060Z,99917.44
2023-12-28T11:14:44.200Z,99910.50
2023-12-28T11:17:12.952Z,99909.69
2023-12-28T11:19:42.384Z,99916.69
2023-12-28T11:22:11.028Z,99908.84
2023-12-28T11:24:39.656Z,99904.53
2023-12-28T11:27:11.112Z,99910.66
2023-12-28T11:29:40.103Z,99904.53
2023-12-28T11:32:10.973Z,99906.34
2023-12-28T11:34:39.540Z,99895.88
2023-12-28T11:37:11.556Z,99895.91
2023-12-28T11:39:41.298Z,99901.19
2023-12-28T11:42:10.299Z,99895.09
2023-12-28T11:44:45.077Z,99900.34
2023-12-28T11:47:15.564Z,99885.50
2023-12-28T11:49:47.014Z,99889.91
2023-12-28T11:52:25.274Z,99876.88
2023-12-28T11:54:54.375Z,99873.38
2023-12-28T11:57:22.985Z,99879.53
2023-12-28T11:59:55.824Z,99872.56
2023-12-28T12:02:26.300Z,99876.97
2023-12-28T12:04:56.438Z,99882.22
2023-12-28T12:07:26.222Z,99884.00
2023-12-28T12:09:58.056Z,99881.38
2023-12-28T12:12:27.048Z,99876.19
2023-12-28T12:14:56.273Z,99879.72
2023-12-28T12:17:26.743Z,99882.34
2023-12-28T12:19:56.746Z,99884.09
2023-12-28T12:22:28.974Z,99877.09
2023-12-28T12:25:00.226Z,99874.47
2023-12-28T12:27:28.710Z,99874.47
2023-12-28T12:29:57.110Z,99863.09
2023-12-28T12:32:27.259Z,99855.22
2023-12-28T12:34:56.297Z,99859.56
2023-12-28T12:37:25.240Z,99861.34
2023-12-28T12:39:55.268Z,99859.59
2023-12-28T12:42:23.716Z,99852.63
2023-12-28T12:44:52.072Z,99845.63
2023-12-28T12:47:20.381Z,99840.38
2023-12-28T12:49:50.936Z,99838.66
2023-12-28T12:52:19.308Z,99840.41
2023-12-28T12:54:55.640Z,99842.16
2023-12-28T12:57:24.180Z,99839.53
2023-12-28T12:59:52.721Z,99839.53
2023-12-28T13:02:21.246Z,99836.09
2023-12-28T13:04:53.668Z,99836.09
2023-12-28T13:07:22.174Z,99840.44
2023-12-28T13:09:50.482Z,99835.22
2023-12-28T13:12:19.049Z,99833.47
2023-12-28T13:14:47.411Z,99836.09
2023-12-28T13:17:15.729Z,99829.97
2023-12-28T13:19:44.323Z,99835.22
2023-12-28T13:22:14.153Z,99837.84
2023-12-28T13:24:43.579Z,99831.75
2023-12-28T13:27:11.818Z,99829.97
2023-12-28T13:29:40.268Z,99831.75
2023-12-28T13:32:08.781Z,99833.47
2023-12-28T13:34:37.075Z,99830.84
2023-12-28T13:37:06.030Z,99828.22
2023-12-28T13:39:39.802Z,99830.84
2023-12-28T13:42:09.133Z,99833.47
2023-12-28T13:44:37.549Z,99830.84
2023-12-28T13:47:08.521Z,99828.22
2023-12-28T13:49:37.629Z,99823.81
2023-12-28T13:52:06.397Z,99825.56
2023-12-28T13:54:36.035Z,99825.56
2023-12-28T13:57:04.500Z,99820.31
2023-12-28T13:59:33.103Z,99815.06
2023-12-28T14:02:01.415Z,99823.75
2023-12-28T14:04:29.917Z,99807.19
2023-12-28T14:06:58.445Z,99812.44
2023-12-28T14:09:26.803Z,99819.38
2023-12-28T14:11:56.463Z,99813.28
2023-12-28T14:14:24.758Z,99798.41
2023-12-28T14:16:53.076Z,99809.72
2023-12-28T14:19:21.433Z,99808.03
2023-12-28T14:21:50.448Z,99809.72
2023-12-28T14:24:19.824Z,99817.59
2023-12-28T14:26:48.860Z,99814.97
2023-12-28T14:29:18.162Z,99815.84
2023-12-28T14:31:47.549Z,99810.56
2023-12-28T14:34:16.956Z,99810.56
2023-12-28T14:36:50.895Z,99826.28
2023-12-28T14:39:20.563Z,99812.28
2023-12-28T14:41:49.026Z,99811.41
2023-12-28T14:44:18.763Z,99808.72
2023-12-28T14:46:47.054Z,99819.22
2023-12-28T14:49:15.513Z,99819.22
2023-12-28T14:51:43.956Z,99822.72
2023-12-28T14:54:12.309Z,99812.22
2023-12-28T14:56:45.692Z,99817.47
2023-12-28T14:59:21.385Z,99816.56
2023-12-28T15:01:51.482Z,99818.28
2023-12-28T15:04:21.668Z,99812.13
2023-12-28T15:06:51.837Z,99817.34
2023-12-28T15:09:20.317Z,99819.06
2023-12-28T15:11:49.726Z,99815.56
2023-12-28T15:14:18.922Z,99812.94
2023-12-28T15:16:49.572Z,99809.44
2023-12-28T15:19:18.420Z,99805.91
2023-12-28T15:21:47.475Z,99802.41
2023-12-28T15:24:16.589Z,99805.00
2023-12-28T15:26:44.946Z,99801.44
2023-12-28T15:29:14.185Z,99789.22
2023-12-28T15:31:42.585Z,99797.91
2023-12-28T15:34:12.531Z,99798.75
2023-12-28T15:36:41.769Z,99797.84
2023-12-28T15:39:10.065Z,99795.22
2023-12-28T15:41:38.314Z,99798.66
2023-12-28T15:44:07.011Z,99794.28
2023-12-28T15:46:35.917Z,99795.13
2023-12-28T15:49:05.048Z,99796.00
2023-12-28T15:51:35.027Z,99792.44
2023-12-28T15:54:04.536Z,99797.69
2023-12-28T15:56:33.423Z,99809.00
2023-12-28T15:59:02.149Z,99802.06
2023-12-28T16:01:30.826Z,99795.91
2023-12-28T16:03:59.590Z,99801.16
2023-12-28T16:06:28.682Z,99795.91
2023-12-28T16:08:59.676Z,99793.28
2023-12-28T16:11:28.836Z,99802.94
2023-12-28T16:13:58.551Z,99792.44
2023-12-28T16:16:28.165Z,99781.97
2023-12-28T16:18:57.776Z,99783.72
2023-12-28T16:21:26.912Z,99781.09
2023-12-28T16:23:56.191Z,99781.97
2023-12-28T16:26:26.715Z,99777.59
2023-12-28T16:28:55.806Z,99778.47
2023-12-28T16:31:24.403Z,99768.00
2023-12-28T16:33:53.048Z,99775.91
2023-12-28T16:36:21.722Z,99772.41
2023-12-28T16:38:51.927Z,99771.50
2023-12-28T16:41:21.190Z,99780.25
2023-12-28T16:43:52.635Z,99775.03
2023-12-28T16:46:21.125Z,99768.00
2023-12-28T16:48:50.207Z,99768.00
2023-12-28T16:51:19.795Z,99768.00
2023-12-28T16:53:48.647Z,99754.88
2023-12-28T16:56:17.805Z,99749.59
2023-12-28T16:58:46.323Z,99753.97
2023-12-28T17:01:16.563Z,99762.69
2023-12-28T17:03:45.041Z,99760.09
2023-12-28T17:06:13.920Z,99763.56
2023-12-28T17:08:42.701Z,99774.94
2023-12-28T17:11:13.806Z,99766.25
2023-12-28T17:13:42.726Z,99768.81
2023-12-28T17:16:12.048Z,99761.81
2023-12-28T17:18:42.499Z,99773.19
2023-12-28T17:21:15.456Z,99760.09
2023-12-28T17:23:49.560Z,99765.28
2023-12-28T17:26:26.149Z,99766.19
2023-12-28T17:29:01.128Z,99773.19
2023-12-28T17:31:31.140Z,99780.19
2023-12-28T17:34:04.477Z,99777.50
2023-12-28T17:36:35.325Z,99780.13
2023-12-28T17:39:08.102Z,99788.00
2023-12-28T17:41:40.387Z,99773.97
2023-12-28T17:44:10.525Z,99780.09
2023-12-28T17:46:49.141Z,99772.22
2023-12-28T17:49:27.812Z,99773.09
2023-12-28T17:51:57.728Z,99771.31
2023-12-28T17:54:27.768Z,99774.81
2023-12-28T17:56:56.682Z,99767.78
2023-12-28T17:59:29.820Z,99769.53
2023-12-28T18:02:00.778Z,99783.50
2023-12-28T18:04:31.431Z,99775.63
2023-12-28T18:07:00.026Z,99783.50
2023-12-28T18:09:29.061Z,99779.97
2023-12-28T18:11:57.886Z,99778.22
2023-12-28T18:14:26.638Z,99774.72
2023-12-28T18:16:56.406Z,99775.56
2023-12-28T18:19:25.063Z,99769.44
2023-12-28T18:21:54.999Z,99765.94
2023-12-28T18:24:24.192Z,99766.75
2023-12-28T18:26:52.648Z,99771.13
2023-12-28T18:29:21.001Z,99765.91
2023-12-28T18:31:49.366Z,99766.75
2023-12-28T18:34:18.075Z,99779.88
2023-12-28T18:36:46.859Z,99775.50
2023-12-28T18:39:17.761Z,99790.28
2023-12-28T18:41:47.351Z,99778.94
2023-12-28T18:44:17.785Z,99790.28
2023-12-28T18:46:47.190Z,99799.91
2023-12-28T18:49:17.029Z,99793.75
2023-12-28T18:51:46.433Z,99796.38
2023-12-28T18:54:18.674Z,99797.25
2023-12-28T18:56:49.732Z,99782.41
2023-12-28T18:59:21.545Z,99783.28
2023-12-28T19:01:52.245Z,99789.41
2023-12-28T19:04:21.026Z,99779.81
2023-12-28T19:06:54.012Z,99783.31
2023-12-28T19:09:24.871Z,99782.44
2023-12-28T19:11:57.428Z,99780.66
2023-12-28T19:14:27.899Z,99776.31
2023-12-28T19:17:08.367Z,99767.56
2023-12-28T19:19:39.953Z,99771.03
2023-12-28T19:22:08.584Z,99780.66
2023-12-28T19:24:40.657Z,99778.91
2023-12-28T19:27:12.979Z,99779.78
2023-12-28T19:29:45.339Z,99791.13
2023-12-28T19:32:16.637Z,99788.50
2023-12-28T19:34:45.968Z,99771.03
2023-12-28T19:37:16.425Z,99776.28
2023-12-28T19:39:51.017Z,99753.56
2023-12-28T19:42:22.100Z,99756.19
2023-12-28T19:44:52.938Z,99754.41
2023-12-28T19:47:22.338Z,99743.09
2023-12-28T19:49:54.214Z,99746.59
2023-12-28T19:52:24.747Z,99757.03
2023-12-28T19:55:01.463Z,99757.03
2023-12-28T19:57:31.895Z,99757.03
2023-12-28T20:00:02.264Z,99763.13
2023-12-28T20:02:36.433Z,99749.16
2023-12-28T20:05:12.236Z,99743.00
2023-12-28T20:07:45.164Z,99756.97
2023-12-28T20:10:20.070Z,99753.47
2023-12-28T20:12:51.557Z,99751.69
2023-12-28T20:15:25.201Z,99749.06
2023-12-28T20:18:01.867Z,99735.97
2023-12-28T20:20:33.394Z,99725.44
2023-12-28T20:23:06.521Z,99737.66
2023-12-28T20:25:39.192Z,99732.44
2023-12-28T20:28:08.461Z,99732.44
2023-12-28T20:30:37.554Z,99725.41
2023-12-28T20:33:08.774Z,99742.88
2023-12-28T20:35:39.743Z,99746.38
2023-12-28T20:38:10.167Z,99730.63
2023-12-28T20:40:43.639Z,99728.03
2023-12-28T20:43:12.616Z,99718.38
2023-12-28T20:45:41.418Z,99721.00
2023-12-28T20:48:10.779Z,99735.00
2023-12-28T20:50:42.527Z,99727.16
2023-12-28T20:53:15.657Z,99724.53
2023-12-28T20:55:47.349Z,99716.66
2023-12-28T20:58:16.144Z,99713.13
2023-12-28T21:00:45.749Z,99709.66
2023-12-28T21:03:16.415Z,99706.19
2023-12-28T21:05:46.276Z,99706.19
2023-12-28T21:08:15.044Z,99707.88
2023-12-28T21:10:48.443Z,99696.53
2023-12-28T21:13:22.736Z,99704.41
2023-12-28T21:15:52.511Z,99709.66
2023-12-28T21:18:30.087Z,99706.16
2023-12-28T21:21:09.906Z,99705.28
2023-12-28T21:23:41.706Z,99710.50
2023-12-28T21:26:12.740Z,99699.16
2023-12-28T21:28:45.001Z,99700.03
2023-12-28T21:31:14.680Z,99699.16
2023-12-28T21:33:44.652Z,99701.78
2023-12-28T21:36:15.203Z,99699.16
2023-12-28T21:38:46.359Z,99682.56
2023-12-28T21:41:22.544Z,99693.91
2023-12-28T21:43:52.471Z,99698.28
2023-12-28T21:46:23.543Z,99697.41
2023-12-28T21:48:53.138Z,99687.81
2023-12-28T21:51:23.326Z,99691.31
2023-12-28T21:53:53.505Z,99691.31
2023-12-28T21:56:23.560Z,99689.50
2023-12-28T21:58:54.100Z,99688.63
2023-12-28T22:01:22.693Z,99687.78
2023-12-28T22:03:53.542Z,99685.19
2023-12-28T22:06:25.965Z,99687.81
2023-12-28T22:08:56.304Z,99687.84
2023-12-28T22:11:26.053Z,99686.97
2023-12-28T22:13:55.592Z,99688.72
2023-12-28T22:16:27.543Z,99682.66
2023-12-28T22:18:56.912Z,99689.66
2023-12-28T22:21:27.024Z,99689.66
2023-12-28T22:23:55.930Z,99691.44
2023-12-28T22:26:24.665Z,99693.19
2023-12-28T22:28:56.189Z,99681.81
2023-12-28T22:31:25.293Z,99683.56
2023-12-28T22:33:53.964Z,99688.84
2023-12-28T22:36:22.767Z,99678.38
2023-12-28T22:38:53.083Z,99678.41
2023-12-28T22:41:23.559Z,99671.44
2023-12-28T22:43:52.463Z,99668.81
2023-12-28T22:46:24.071Z,99682.78
2023-12-28T22:48:55.204Z,99662.69
2023-12-28T22:51:27.584Z,99675.78
2023-12-28T22:53:57.574Z,99658.31
2023-12-28T22:56:28.821Z,99666.22
2023-12-28T22:58:58.664Z,99659.25
2023-12-28T23:01:30.045Z,99654.88
2023-12-28T23:04:00.205Z,99650.50
2023-12-28T23:06:29.192Z,99646.16
2023-12-28T23:09:05.025Z,99650.53
2023-12-28T23:11:35.626Z,99641.78
2023-12-28T23:14:05.641Z,99641.78
2023-12-28T23:16:37.432Z,99632.22
2023-12-28T23:19:07.590Z,99634.81
2023-12-28T23:21:37.518Z,99636.56
2023-12-28T23:24:09.401Z,99633.09
2023-12-28T23:26:50.255Z,99632.22
2023-12-28T23:29:22.051Z,99631.34
2023-12-28T23:31:52.199Z,99634.84
2023-12-28T23:34:26.036Z,99633.09
2023-12-28T23:37:02.413Z,99634.84
2023-12-28T23:39:31.602Z,99631.38
2023-12-28T23:42:01.204Z,99634.00
2023-12-28T23:44:29.840Z,99643.56
2023-12-28T23:46:59.653Z,99626.13
2023-12-28T23:49:28.567Z,99634.00
2023-12-28T23:51:56.938Z,99627.88
2023-12-28T23:54:28.365Z,99625.25
2023-12-28T23:57:00.067Z,99622.63
2023-12-28T23:59:30.245Z,99630.50
